Tall Timbers, Maryland
Current Conditions -  °F | °C
As of 7:53 PM on Tuesday 21 Oct 2014 (Local Time) from KNUI Reporting Station
Overcast Overcast  
Wind Chill: 62°   Ceiling: 5000
Heat Index: 62°   Visibility: 10mi
Dew Point: 47°   Wind: 6mph
Humidity: 58%   Direction: 320°NW
Pressure: 29.83"   Gusts: NA
Location:  38.17°N, 76.55°W
Report Text: KNUI 212353Z AUTO 32005KT 10SM BKN050 BKN065 OVC080 17/08 A2983 RMK AO2 SLP100 T01670083 10217 20156 53011
Loading
Personal Weather Stations






























Interactive Weather Map New forecast layout! Learn more

10-Day Weather Forecast

Advertisements
Track Severe Weather on mobile